sensor_id;sensor_type;location;lat;lon;timestamp;temperature;humidity
57058;DHT22;74999;52.848;6.748;2024-03-25T00:00:38;6.40;99.90
57058;DHT22;74999;52.848;6.748;2024-03-25T00:03:04;6.30;99.90
57058;DHT22;74999;52.848;6.748;2024-03-25T00:05:29;6.30;99.90
57058;DHT22;74999;52.848;6.748;2024-03-25T00:07:57;6.10;99.90
57058;DHT22;74999;52.848;6.748;2024-03-25T00:10:24;6.00;99.90
57058;DHT22;74999;52.848;6.748;2024-03-25T00:12:49;6.10;99.90
57058;DHT22;74999;52.848;6.748;2024-03-25T00:15:20;6.00;99.90
57058;DHT22;74999;52.848;6.748;2024-03-25T00:17:47;5.90;99.90
57058;DHT22;74999;52.848;6.748;2024-03-25T00:20:13;5.90;99.90
57058;DHT22;74999;52.848;6.748;2024-03-25T00:22:40;6.50;99.90
57058;DHT22;74999;52.848;6.748;2024-03-25T00:25:06;5.90;99.90
57058;DHT22;74999;52.848;6.748;2024-03-25T00:27:32;5.90;99.90
57058;DHT22;74999;52.848;6.748;2024-03-25T00:29:58;5.80;99.90
57058;DHT22;74999;52.848;6.748;2024-03-25T00:32:24;5.60;99.90
57058;DHT22;74999;52.848;6.748;2024-03-25T00:34:50;5.50;99.90
57058;DHT22;74999;52.848;6.748;2024-03-25T00:37:15;5.70;99.90
57058;DHT22;74999;52.848;6.748;2024-03-25T00:39:41;5.60;99.90
57058;DHT22;74999;52.848;6.748;2024-03-25T00:42:07;5.60;99.90
57058;DHT22;74999;52.848;6.748;2024-03-25T00:44:32;5.70;99.90
57058;DHT22;74999;52.848;6.748;2024-03-25T00:46:58;5.70;99.90
57058;DHT22;74999;52.848;6.748;2024-03-25T00:49:23;5.60;99.90
57058;DHT22;74999;52.848;6.748;2024-03-25T00:51:49;6.10;99.90
57058;DHT22;74999;52.848;6.748;2024-03-25T00:54:14;5.90;99.90
57058;DHT22;74999;52.848;6.748;2024-03-25T00:56:40;5.80;99.90
57058;DHT22;74999;52.848;6.748;2024-03-25T00:59:06;5.70;99.90
57058;DHT22;74999;52.848;6.748;2024-03-25T01:01:32;5.60;99.90
57058;DHT22;74999;52.848;6.748;2024-03-25T01:03:58;5.60;99.90
57058;DHT22;74999;52.848;6.748;2024-03-25T01:06:24;5.60;99.90
57058;DHT22;74999;52.848;6.748;2024-03-25T01:08:50;5.50;99.90
57058;DHT22;74999;52.848;6.748;2024-03-25T01:11:16;5.50;99.90
57058;DHT22;74999;52.848;6.748;2024-03-25T01:13:41;5.60;99.90
57058;DHT22;74999;52.848;6.748;2024-03-25T01:16:07;5.60;99.90
57058;DHT22;74999;52.848;6.748;2024-03-25T01:18:33;5.50;99.90
57058;DHT22;74999;52.848;6.748;2024-03-25T01:20:59;5.40;99.90
57058;DHT22;74999;52.848;6.748;2024-03-25T01:23:25;5.50;99.90
57058;DHT22;74999;52.848;6.748;2024-03-25T01:25:50;5.50;99.90
57058;DHT22;74999;52.848;6.748;2024-03-25T01:28:16;5.40;99.90
57058;DHT22;74999;52.848;6.748;2024-03-25T01:30:42;5.40;99.90
57058;DHT22;74999;52.848;6.748;2024-03-25T01:33:07;5.40;99.90
57058;DHT22;74999;52.848;6.748;2024-03-25T01:35:34;5.40;99.90
57058;DHT22;74999;52.848;6.748;2024-03-25T01:37:59;5.80;99.90
57058;DHT22;74999;52.848;6.748;2024-03-25T01:40:25;5.20;99.90
57058;DHT22;74999;52.848;6.748;2024-03-25T01:43:02;5.30;99.90
57058;DHT22;74999;52.848;6.748;2024-03-25T01:45:30;5.40;99.90
57058;DHT22;74999;52.848;6.748;2024-03-25T01:47:58;5.20;99.90
57058;DHT22;74999;52.848;6.748;2024-03-25T01:50:24;5.20;99.90
57058;DHT22;74999;52.848;6.748;2024-03-25T01:52:51;5.30;99.90
57058;DHT22;74999;52.848;6.748;2024-03-25T01:55:25;5.30;99.90
57058;DHT22;74999;52.848;6.748;2024-03-25T01:57:51;5.40;99.90
57058;DHT22;74999;52.848;6.748;2024-03-25T02:00:17;5.30;99.90
57058;DHT22;74999;52.848;6.748;2024-03-25T02:02:43;5.20;99.90
57058;DHT22;74999;52.848;6.748;2024-03-25T02:05:16;5.40;99.90
57058;DHT22;74999;52.848;6.748;2024-03-25T02:07:43;5.30;99.90
57058;DHT22;74999;52.848;6.748;2024-03-25T02:10:09;5.50;99.90
57058;DHT22;74999;52.848;6.748;2024-03-25T02:12:42;5.40;99.90
57058;DHT22;74999;52.848;6.748;2024-03-25T02:15:08;5.50;99.90
57058;DHT22;74999;52.848;6.748;2024-03-25T02:17:35;5.40;99.90
57058;DHT22;74999;52.848;6.748;2024-03-25T02:20:01;5.40;99.90
57058;DHT22;74999;52.848;6.748;2024-03-25T02:22:28;5.40;99.90
57058;DHT22;74999;52.848;6.748;2024-03-25T02:24:57;5.40;99.90
57058;DHT22;74999;52.848;6.748;2024-03-25T02:27:24;5.50;99.90
57058;DHT22;74999;52.848;6.748;2024-03-25T02:29:50;5.40;99.90
57058;DHT22;74999;52.848;6.748;2024-03-25T02:32:16;5.40;99.90
57058;DHT22;74999;52.848;6.748;2024-03-25T02:34:46;5.40;99.90
57058;DHT22;74999;52.848;6.748;2024-03-25T02:37:13;5.40;99.90
57058;DHT22;74999;52.848;6.748;2024-03-25T02:39:38;5.40;99.90
57058;DHT22;74999;52.848;6.748;2024-03-25T02:42:04;5.40;99.90
57058;DHT22;74999;52.848;6.748;2024-03-25T02:44:31;5.50;99.90
57058;DHT22;74999;52.848;6.748;2024-03-25T02:46:57;5.40;99.90
57058;DHT22;74999;52.848;6.748;2024-03-25T02:49:23;5.50;99.90
57058;DHT22;74999;52.848;6.748;2024-03-25T02:51:49;5.60;99.90
57058;DHT22;74999;52.848;6.748;2024-03-25T02:54:16;5.50;99.90
57058;DHT22;74999;52.848;6.748;2024-03-25T02:56:44;5.50;99.90
57058;DHT22;74999;52.848;6.748;2024-03-25T02:59:09;5.60;99.90
57058;DHT22;74999;52.848;6.748;2024-03-25T03:01:35;5.50;99.90
57058;DHT22;74999;52.848;6.748;2024-03-25T03:04:00;5.60;99.90
57058;DHT22;74999;52.848;6.748;2024-03-25T03:06:26;5.50;99.90
57058;DHT22;74999;52.848;6.748;2024-03-25T03:08:52;5.70;99.90
57058;DHT22;74999;52.848;6.748;2024-03-25T03:11:17;6.50;99.90
57058;DHT22;74999;52.848;6.748;2024-03-25T03:13:43;5.60;99.90
57058;DHT22;74999;52.848;6.748;2024-03-25T03:16:08;5.50;99.90
57058;DHT22;74999;52.848;6.748;2024-03-25T03:18:34;5.50;99.90
57058;DHT22;74999;52.848;6.748;2024-03-25T03:21:00;5.70;99.90
57058;DHT22;74999;52.848;6.748;2024-03-25T03:23:26;5.50;99.90
57058;DHT22;74999;52.848;6.748;2024-03-25T03:25:52;5.50;99.90
57058;DHT22;74999;52.848;6.748;2024-03-25T03:28:18;5.60;99.90
57058;DHT22;74999;52.848;6.748;2024-03-25T03:30:44;5.70;99.90
57058;DHT22;74999;52.848;6.748;2024-03-25T03:33:09;5.60;99.90
57058;DHT22;74999;52.848;6.748;2024-03-25T03:35:35;5.70;99.90
57058;DHT22;74999;52.848;6.748;2024-03-25T03:38:01;5.70;99.90
57058;DHT22;74999;52.848;6.748;2024-03-25T03:40:28;5.60;99.90
57058;DHT22;74999;52.848;6.748;2024-03-25T03:42:54;5.60;99.90
57058;DHT22;74999;52.848;6.748;2024-03-25T03:45:19;5.60;99.90
57058;DHT22;74999;52.848;6.748;2024-03-25T03:47:45;5.90;99.90
57058;DHT22;74999;52.848;6.748;2024-03-25T03:50:11;5.80;99.90
57058;DHT22;74999;52.848;6.748;2024-03-25T03:52:36;5.80;99.90
57058;DHT22;74999;52.848;6.748;2024-03-25T03:55:02;5.70;99.90
57058;DHT22;74999;52.848;6.748;2024-03-25T03:57:31;5.70;99.90
57058;DHT22;74999;52.848;6.748;2024-03-25T03:59:57;5.80;99.90
57058;DHT22;74999;52.848;6.748;2024-03-25T04:02:23;5.70;99.90
57058;DHT22;74999;52.848;6.748;2024-03-25T04:04:50;5.60;99.90
57058;DHT22;74999;52.848;6.748;2024-03-25T04:07:16;5.60;99.90
57058;DHT22;74999;52.848;6.748;2024-03-25T04:09:43;5.70;99.90
57058;DHT22;74999;52.848;6.748;2024-03-25T04:12:08;5.60;99.90
57058;DHT22;74999;52.848;6.748;2024-03-25T04:14:34;5.60;99.90
57058;DHT22;74999;52.848;6.748;2024-03-25T04:16:59;5.50;99.90
57058;DHT22;74999;52.848;6.748;2024-03-25T04:19:26;5.60;99.90
57058;DHT22;74999;52.848;6.748;2024-03-25T04:21:53;5.50;99.90
57058;DHT22;74999;52.848;6.748;2024-03-25T04:24:19;5.60;99.90
57058;DHT22;74999;52.848;6.748;2024-03-25T04:26:45;5.60;99.90
57058;DHT22;74999;52.848;6.748;2024-03-25T04:29:11;5.70;99.90
57058;DHT22;74999;52.848;6.748;2024-03-25T04:31:36;5.60;99.90
57058;DHT22;74999;52.848;6.748;2024-03-25T04:34:03;5.60;99.90
57058;DHT22;74999;52.848;6.748;2024-03-25T04:36:30;5.50;99.90
57058;DHT22;74999;52.848;6.748;2024-03-25T04:38:56;5.60;99.90
57058;DHT22;74999;52.848;6.748;2024-03-25T04:41:22;5.60;99.90
57058;DHT22;74999;52.848;6.748;2024-03-25T04:43:48;6.70;99.90
57058;DHT22;74999;52.848;6.748;2024-03-25T04:46:14;5.50;99.90
57058;DHT22;74999;52.848;6.748;2024-03-25T04:48:39;5.50;99.90
57058;DHT22;74999;52.848;6.748;2024-03-25T04:51:06;5.40;99.90
57058;DHT22;74999;52.848;6.748;2024-03-25T04:53:31;5.50;99.90
57058;DHT22;74999;52.848;6.748;2024-03-25T04:55:57;5.50;99.90
57058;DHT22;74999;52.848;6.748;2024-03-25T04:58:23;5.40;99.90
57058;DHT22;74999;52.848;6.748;2024-03-25T05:00:48;5.40;99.90
57058;DHT22;74999;52.848;6.748;2024-03-25T05:03:14;5.40;99.90
57058;DHT22;74999;52.848;6.748;2024-03-25T05:05:39;5.40;99.90
57058;DHT22;74999;52.848;6.748;2024-03-25T05:08:05;5.30;99.90
57058;DHT22;74999;52.848;6.748;2024-03-25T05:10:31;5.30;99.90
57058;DHT22;74999;52.848;6.748;2024-03-25T05:12:56;5.20;99.90
57058;DHT22;74999;52.848;6.748;2024-03-25T05:15:22;5.20;99.90
57058;DHT22;74999;52.848;6.748;2024-03-25T05:17:48;5.20;99.90
57058;DHT22;74999;52.848;6.748;2024-03-25T05:20:13;5.10;99.90
57058;DHT22;74999;52.848;6.748;2024-03-25T05:22:39;5.10;99.90
57058;DHT22;74999;52.848;6.748;2024-03-25T05:25:05;5.10;99.90
57058;DHT22;74999;52.848;6.748;2024-03-25T05:27:31;5.10;99.90
57058;DHT22;74999;52.848;6.748;2024-03-25T05:29:56;5.00;99.90
57058;DHT22;74999;52.848;6.748;2024-03-25T05:32:22;5.00;99.90
57058;DHT22;74999;52.848;6.748;2024-03-25T05:34:48;5.00;99.90
57058;DHT22;74999;52.848;6.748;2024-03-25T05:37:16;5.20;99.90
57058;DHT22;74999;52.848;6.748;2024-03-25T05:39:41;5.00;99.90
57058;DHT22;74999;52.848;6.748;2024-03-25T05:42:07;4.90;99.90
57058;DHT22;74999;52.848;6.748;2024-03-25T05:44:33;4.80;99.90
57058;DHT22;74999;52.848;6.748;2024-03-25T05:46:58;4.80;99.90
57058;DHT22;74999;52.848;6.748;2024-03-25T05:49:24;4.80;99.90
57058;DHT22;74999;52.848;6.748;2024-03-25T05:51:49;4.80;99.90
57058;DHT22;74999;52.848;6.748;2024-03-25T05:54:15;4.80;99.90
57058;DHT22;74999;52.848;6.748;2024-03-25T05:56:41;4.80;99.90
57058;DHT22;74999;52.848;6.748;2024-03-25T05:59:06;4.80;99.90
57058;DHT22;74999;52.848;6.748;2024-03-25T06:01:32;4.80;99.90
57058;DHT22;74999;52.848;6.748;2024-03-25T06:03:59;4.90;99.90
57058;DHT22;74999;52.848;6.748;2024-03-25T06:06:24;4.80;99.90
57058;DHT22;74999;52.848;6.748;2024-03-25T06:08:50;4.80;99.90
57058;DHT22;74999;52.848;6.748;2024-03-25T06:11:16;4.80;99.90
57058;DHT22;74999;52.848;6.748;2024-03-25T06:13:46;4.90;99.90
57058;DHT22;74999;52.848;6.748;2024-03-25T06:16:13;4.90;99.90
57058;DHT22;74999;52.848;6.748;2024-03-25T06:18:38;5.10;99.90
57058;DHT22;74999;52.848;6.748;2024-03-25T06:21:05;4.90;99.90
57058;DHT22;74999;52.848;6.748;2024-03-25T06:23:31;4.90;99.90
57058;DHT22;74999;52.848;6.748;2024-03-25T06:25:57;5.00;99.90
57058;DHT22;74999;52.848;6.748;2024-03-25T06:28:23;5.10;99.90
57058;DHT22;74999;52.848;6.748;2024-03-25T06:30:49;5.20;99.90
57058;DHT22;74999;52.848;6.748;2024-03-25T06:33:33;5.10;99.90
57058;DHT22;74999;52.848;6.748;2024-03-25T06:36:18;5.10;99.90
57058;DHT22;74999;52.848;6.748;2024-03-25T06:38:44;5.00;99.90
57058;DHT22;74999;52.848;6.748;2024-03-25T06:41:09;5.20;99.90
57058;DHT22;74999;52.848;6.748;2024-03-25T06:43:36;5.10;99.90
57058;DHT22;74999;52.848;6.748;2024-03-25T06:46:03;5.50;99.90
57058;DHT22;74999;52.848;6.748;2024-03-25T06:48:29;5.60;99.90
57058;DHT22;74999;52.848;6.748;2024-03-25T06:50:55;5.50;99.90
57058;DHT22;74999;52.848;6.748;2024-03-25T06:53:21;5.50;99.90
57058;DHT22;74999;52.848;6.748;2024-03-25T06:55:55;5.60;99.90
57058;DHT22;74999;52.848;6.748;2024-03-25T06:58:21;5.60;99.90
57058;DHT22;74999;52.848;6.748;2024-03-25T07:00:47;5.70;99.90
57058;DHT22;74999;52.848;6.748;2024-03-25T07:03:17;5.70;99.90
57058;DHT22;74999;52.848;6.748;2024-03-25T07:05:47;5.70;99.90
57058;DHT22;74999;52.848;6.748;2024-03-25T07:08:14;5.80;99.90
57058;DHT22;74999;52.848;6.748;2024-03-25T07:10:43;5.90;99.90
57058;DHT22;74999;52.848;6.748;2024-03-25T07:13:09;5.90;99.90
57058;DHT22;74999;52.848;6.748;2024-03-25T07:15:34;5.90;99.90
57058;DHT22;74999;52.848;6.748;2024-03-25T07:18:00;5.90;99.90
57058;DHT22;74999;52.848;6.748;2024-03-25T07:20:26;6.00;99.90
57058;DHT22;74999;52.848;6.748;2024-03-25T07:22:52;6.00;99.90
57058;DHT22;74999;52.848;6.748;2024-03-25T07:25:24;6.20;99.90
57058;DHT22;74999;52.848;6.748;2024-03-25T07:27:50;6.30;99.90
57058;DHT22;74999;52.848;6.748;2024-03-25T07:30:16;6.50;99.90
57058;DHT22;74999;52.848;6.748;2024-03-25T07:32:42;6.70;99.90
57058;DHT22;74999;52.848;6.748;2024-03-25T07:35:10;6.70;99.90
57058;DHT22;74999;52.848;6.748;2024-03-25T07:37:36;7.00;99.90
57058;DHT22;74999;52.848;6.748;2024-03-25T07:40:02;7.30;99.90
57058;DHT22;74999;52.848;6.748;2024-03-25T07:42:31;7.40;99.90
57058;DHT22;74999;52.848;6.748;2024-03-25T07:44:57;8.60;99.90
57058;DHT22;74999;52.848;6.748;2024-03-25T07:47:22;7.60;99.90
57058;DHT22;74999;52.848;6.748;2024-03-25T07:49:48;7.70;99.90
57058;DHT22;74999;52.848;6.748;2024-03-25T07:52:13;7.90;99.90
57058;DHT22;74999;52.848;6.748;2024-03-25T07:54:39;8.10;99.90
57058;DHT22;74999;52.848;6.748;2024-03-25T07:57:05;8.10;99.90
57058;DHT22;74999;52.848;6.748;2024-03-25T07:59:30;8.20;99.90
57058;DHT22;74999;52.848;6.748;2024-03-25T08:01:56;8.30;99.90
57058;DHT22;74999;52.848;6.748;2024-03-25T08:04:22;8.30;99.90
57058;DHT22;74999;52.848;6.748;2024-03-25T08:06:48;8.50;99.90
57058;DHT22;74999;52.848;6.748;2024-03-25T08:09:14;8.60;99.90
57058;DHT22;74999;52.848;6.748;2024-03-25T08:11:41;8.70;99.90
57058;DHT22;74999;52.848;6.748;2024-03-25T08:14:09;8.90;99.90
57058;DHT22;74999;52.848;6.748;2024-03-25T08:16:34;8.90;99.90
57058;DHT22;74999;52.848;6.748;2024-03-25T08:19:00;8.90;99.90
57058;DHT22;74999;52.848;6.748;2024-03-25T08:21:25;9.00;99.90
57058;DHT22;74999;52.848;6.748;2024-03-25T08:23:51;9.00;99.90
57058;DHT22;74999;52.848;6.748;2024-03-25T08:26:17;9.30;99.90
57058;DHT22;74999;52.848;6.748;2024-03-25T08:28:42;9.40;99.90
57058;DHT22;74999;52.848;6.748;2024-03-25T08:31:08;9.50;99.90
57058;DHT22;74999;52.848;6.748;2024-03-25T08:33:33;9.50;99.90
57058;DHT22;74999;52.848;6.748;2024-03-25T08:35:59;9.60;99.90
57058;DHT22;74999;52.848;6.748;2024-03-25T08:38:25;9.70;99.90
57058;DHT22;74999;52.848;6.748;2024-03-25T08:40:51;9.90;99.90
57058;DHT22;74999;52.848;6.748;2024-03-25T08:43:16;10.00;99.90
57058;DHT22;74999;52.848;6.748;2024-03-25T08:45:43;10.30;99.90
57058;DHT22;74999;52.848;6.748;2024-03-25T08:48:09;10.30;99.90
57058;DHT22;74999;52.848;6.748;2024-03-25T08:50:34;11.40;99.90
57058;DHT22;74999;52.848;6.748;2024-03-25T08:53:00;10.70;99.90
57058;DHT22;74999;52.848;6.748;2024-03-25T08:55:27;10.90;99.90
57058;DHT22;74999;52.848;6.748;2024-03-25T08:57:53;10.80;99.90
57058;DHT22;74999;52.848;6.748;2024-03-25T09:00:18;10.80;99.90
57058;DHT22;74999;52.848;6.748;2024-03-25T09:02:44;10.60;99.90
57058;DHT22;74999;52.848;6.748;2024-03-25T09:05:09;10.40;99.90
57058;DHT22;74999;52.848;6.748;2024-03-25T09:07:36;10.20;99.90
57058;DHT22;74999;52.848;6.748;2024-03-25T09:10:02;10.10;99.90
57058;DHT22;74999;52.848;6.748;2024-03-25T09:12:46;9.80;99.90
57058;DHT22;74999;52.848;6.748;2024-03-25T09:15:12;9.60;99.90
57058;DHT22;74999;52.848;6.748;2024-03-25T09:17:38;9.80;99.90
57058;DHT22;74999;52.848;6.748;2024-03-25T09:20:04;9.50;99.90
57058;DHT22;74999;52.848;6.748;2024-03-25T09:22:42;9.60;99.90
57058;DHT22;74999;52.848;6.748;2024-03-25T09:25:07;10.10;99.90
57058;DHT22;74999;52.848;6.748;2024-03-25T09:27:33;10.10;99.90
57058;DHT22;74999;52.848;6.748;2024-03-25T09:29:59;10.40;99.90
57058;DHT22;74999;52.848;6.748;2024-03-25T09:32:24;10.60;99.90
57058;DHT22;74999;52.848;6.748;2024-03-25T09:34:51;10.90;99.90
57058;DHT22;74999;52.848;6.748;2024-03-25T09:37:17;10.90;99.90
57058;DHT22;74999;52.848;6.748;2024-03-25T09:39:43;11.00;99.90
57058;DHT22;74999;52.848;6.748;2024-03-25T09:42:14;11.10;99.90
57058;DHT22;74999;52.848;6.748;2024-03-25T09:44:40;11.30;99.90
57058;DHT22;74999;52.848;6.748;2024-03-25T09:47:06;11.40;99.90
57058;DHT22;74999;52.848;6.748;2024-03-25T09:49:33;12.00;99.90
57058;DHT22;74999;52.848;6.748;2024-03-25T09:51:59;11.40;99.90
57058;DHT22;74999;52.848;6.748;2024-03-25T09:54:25;11.70;99.90
57058;DHT22;74999;52.848;6.748;2024-03-25T09:56:51;10.90;99.90
57058;DHT22;74999;52.848;6.748;2024-03-25T09:59:17;10.70;99.90
57058;DHT22;74999;52.848;6.748;2024-03-25T10:01:43;10.80;99.90
57058;DHT22;74999;52.848;6.748;2024-03-25T10:04:09;10.70;99.90
57058;DHT22;74999;52.848;6.748;2024-03-25T10:06:35;10.70;99.90
57058;DHT22;74999;52.848;6.748;2024-03-25T10:09:04;10.40;99.90
57058;DHT22;74999;52.848;6.748;2024-03-25T10:11:31;10.30;99.90
57058;DHT22;74999;52.848;6.748;2024-03-25T10:14:01;10.90;99.90
57058;DHT22;74999;52.848;6.748;2024-03-25T10:16:27;10.20;99.90
57058;DHT22;74999;52.848;6.748;2024-03-25T10:18:53;10.10;99.90
57058;DHT22;74999;52.848;6.748;2024-03-25T10:21:22;10.00;99.90
57058;DHT22;74999;52.848;6.748;2024-03-25T10:23:48;10.10;99.90
57058;DHT22;74999;52.848;6.748;2024-03-25T10:26:30;10.10;99.90
57058;DHT22;74999;52.848;6.748;2024-03-25T10:29:01;10.20;99.90
57058;DHT22;74999;52.848;6.748;2024-03-25T10:31:27;10.50;99.90
57058;DHT22;74999;52.848;6.748;2024-03-25T10:33:53;10.50;99.90
57058;DHT22;74999;52.848;6.748;2024-03-25T10:36:21;10.90;99.90
57058;DHT22;74999;52.848;6.748;2024-03-25T10:38:49;11.30;99.90
57058;DHT22;74999;52.848;6.748;2024-03-25T10:41:17;11.70;99.90
57058;DHT22;74999;52.848;6.748;2024-03-25T10:43:47;12.70;99.90
57058;DHT22;74999;52.848;6.748;2024-03-25T10:46:18;12.00;99.90
57058;DHT22;74999;52.848;6.748;2024-03-25T10:49:02;12.30;99.90
57058;DHT22;74999;52.848;6.748;2024-03-25T10:51:34;11.70;99.90
57058;DHT22;74999;52.848;6.748;2024-03-25T10:54:02;11.60;99.90
57058;DHT22;74999;52.848;6.748;2024-03-25T10:56:28;11.40;99.90
57058;DHT22;74999;52.848;6.748;2024-03-25T10:58:55;11.30;99.90
57058;DHT22;74999;52.848;6.748;2024-03-25T11:01:22;10.90;99.90
57058;DHT22;74999;52.848;6.748;2024-03-25T11:03:48;10.70;99.90
57058;DHT22;74999;52.848;6.748;2024-03-25T11:06:15;10.60;99.90
57058;DHT22;74999;52.848;6.748;2024-03-25T11:08:42;10.50;99.90
57058;DHT22;74999;52.848;6.748;2024-03-25T11:11:12;10.40;99.90
57058;DHT22;74999;52.848;6.748;2024-03-25T11:13:38;10.50;99.90
57058;DHT22;74999;52.848;6.748;2024-03-25T11:16:06;10.80;99.90
57058;DHT22;74999;52.848;6.748;2024-03-25T11:18:33;10.70;99.90
57058;DHT22;74999;52.848;6.748;2024-03-25T11:21:05;11.90;99.90
57058;DHT22;74999;52.848;6.748;2024-03-25T11:23:41;11.20;99.90
57058;DHT22;74999;52.848;6.748;2024-03-25T11:26:21;11.50;99.90
57058;DHT22;74999;52.848;6.748;2024-03-25T11:28:48;11.70;99.90
57058;DHT22;74999;52.848;6.748;2024-03-25T11:31:15;11.80;99.90
57058;DHT22;74999;52.848;6.748;2024-03-25T11:33:42;12.00;99.90
57058;DHT22;74999;52.848;6.748;2024-03-25T11:36:09;12.00;99.90
57058;DHT22;74999;52.848;6.748;2024-03-25T11:38:34;12.00;99.90
57058;DHT22;74999;52.848;6.748;2024-03-25T11:41:00;12.70;99.90
57058;DHT22;74999;52.848;6.748;2024-03-25T11:43:26;11.90;99.90
57058;DHT22;74999;52.848;6.748;2024-03-25T11:45:52;12.00;99.90
57058;DHT22;74999;52.848;6.748;2024-03-25T11:48:19;12.30;99.90
57058;DHT22;74999;52.848;6.748;2024-03-25T11:50:46;12.40;99.90
57058;DHT22;74999;52.848;6.748;2024-03-25T11:53:13;12.60;99.40
57058;DHT22;74999;52.848;6.748;2024-03-25T11:55:45;12.60;99.00
57058;DHT22;74999;52.848;6.748;2024-03-25T11:58:11;13.00;94.10
57058;DHT22;74999;52.848;6.748;2024-03-25T12:00:47;13.70;94.70
57058;DHT22;74999;52.848;6.748;2024-03-25T12:03:16;13.20;94.90
57058;DHT22;74999;52.848;6.748;2024-03-25T12:05:44;13.20;95.00
57058;DHT22;74999;52.848;6.748;2024-03-25T12:08:10;13.60;94.70
57058;DHT22;74999;52.848;6.748;2024-03-25T12:10:37;13.40;94.30
57058;DHT22;74999;52.848;6.748;2024-03-25T12:13:22;13.30;94.20
57058;DHT22;74999;52.848;6.748;2024-03-25T12:15:48;14.20;94.20
57058;DHT22;74999;52.848;6.748;2024-03-25T12:18:14;13.50;93.70
57058;DHT22;74999;52.848;6.748;2024-03-25T12:20:41;13.90;93.40
57058;DHT22;74999;52.848;6.748;2024-03-25T12:23:07;14.20;92.50
57058;DHT22;74999;52.848;6.748;2024-03-25T12:25:33;14.10;91.80
57058;DHT22;74999;52.848;6.748;2024-03-25T12:27:58;14.30;91.40
57058;DHT22;74999;52.848;6.748;2024-03-25T12:30:24;14.10;90.80
57058;DHT22;74999;52.848;6.748;2024-03-25T12:32:51;14.10;90.30
57058;DHT22;74999;52.848;6.748;2024-03-25T12:35:18;14.10;89.60
57058;DHT22;74999;52.848;6.748;2024-03-25T12:37:47;13.90;88.60
57058;DHT22;74999;52.848;6.748;2024-03-25T12:40:24;14.00;86.90
57058;DHT22;74999;52.848;6.748;2024-03-25T12:42:52;14.00;87.90
57058;DHT22;74999;52.848;6.748;2024-03-25T12:45:22;14.20;87.00
57058;DHT22;74999;52.848;6.748;2024-03-25T12:47:49;14.10;87.40
57058;DHT22;74999;52.848;6.748;2024-03-25T12:50:15;14.30;87.40
57058;DHT22;74999;52.848;6.748;2024-03-25T12:52:41;14.00;86.90
57058;DHT22;74999;52.848;6.748;2024-03-25T12:55:06;13.50;86.20
57058;DHT22;74999;52.848;6.748;2024-03-25T12:57:32;13.60;86.60
57058;DHT22;74999;52.848;6.748;2024-03-25T12:59:58;13.60;84.30
57058;DHT22;74999;52.848;6.748;2024-03-25T13:02:24;13.70;83.40
57058;DHT22;74999;52.848;6.748;2024-03-25T13:04:49;13.50;82.90
57058;DHT22;74999;52.848;6.748;2024-03-25T13:07:15;13.70;82.90
57058;DHT22;74999;52.848;6.748;2024-03-25T13:09:41;13.80;73.70
57058;DHT22;74999;52.848;6.748;2024-03-25T13:12:06;13.70;76.90
57058;DHT22;74999;52.848;6.748;2024-03-25T13:14:32;13.70;78.40
57058;DHT22;74999;52.848;6.748;2024-03-25T13:16:58;13.70;78.80
57058;DHT22;74999;52.848;6.748;2024-03-25T13:19:23;13.70;78.80
57058;DHT22;74999;52.848;6.748;2024-03-25T13:21:49;13.70;78.70
57058;DHT22;74999;52.848;6.748;2024-03-25T13:24:14;13.60;78.80
57058;DHT22;74999;52.848;6.748;2024-03-25T13:26:40;13.40;79.70
57058;DHT22;74999;52.848;6.748;2024-03-25T13:29:06;13.50;79.90
57058;DHT22;74999;52.848;6.748;2024-03-25T13:31:33;13.20;79.70
57058;DHT22;74999;52.848;6.748;2024-03-25T13:33:59;13.20;80.60
57058;DHT22;74999;52.848;6.748;2024-03-25T13:36:24;14.00;80.10
57058;DHT22;74999;52.848;6.748;2024-03-25T13:38:50;13.40;79.80
57058;DHT22;74999;52.848;6.748;2024-03-25T13:41:16;13.90;80.30
57058;DHT22;74999;52.848;6.748;2024-03-25T13:43:44;13.70;78.80
57058;DHT22;74999;52.848;6.748;2024-03-25T13:46:10;13.80;77.70
57058;DHT22;74999;52.848;6.748;2024-03-25T13:48:38;13.70;77.00
57058;DHT22;74999;52.848;6.748;2024-03-25T13:51:04;13.60;75.60
57058;DHT22;74999;52.848;6.748;2024-03-25T13:53:29;13.50;74.90
57058;DHT22;74999;52.848;6.748;2024-03-25T13:55:55;13.20;75.80
57058;DHT22;74999;52.848;6.748;2024-03-25T13:58:21;13.50;76.60
57058;DHT22;74999;52.848;6.748;2024-03-25T14:00:46;13.10;76.50
57058;DHT22;74999;52.848;6.748;2024-03-25T14:03:12;13.80;77.30
57058;DHT22;74999;52.848;6.748;2024-03-25T14:05:38;13.10;77.00
57058;DHT22;74999;52.848;6.748;2024-03-25T14:08:03;13.30;77.30
57058;DHT22;74999;52.848;6.748;2024-03-25T14:10:29;13.00;76.90
57058;DHT22;74999;52.848;6.748;2024-03-25T14:12:55;12.90;77.00
57058;DHT22;74999;52.848;6.748;2024-03-25T14:15:21;13.50;77.90
57058;DHT22;74999;52.848;6.748;2024-03-25T14:17:47;12.90;77.70
57058;DHT22;74999;52.848;6.748;2024-03-25T14:20:12;13.20;77.90
57058;DHT22;74999;52.848;6.748;2024-03-25T14:22:38;13.50;77.20
57058;DHT22;74999;52.848;6.748;2024-03-25T14:25:04;13.80;76.30
57058;DHT22;74999;52.848;6.748;2024-03-25T14:27:30;14.00;75.10
57058;DHT22;74999;52.848;6.748;2024-03-25T14:29:56;14.50;74.00
57058;DHT22;74999;52.848;6.748;2024-03-25T14:32:22;15.30;72.50
57058;DHT22;74999;52.848;6.748;2024-03-25T14:34:48;15.50;71.20
57058;DHT22;74999;52.848;6.748;2024-03-25T14:37:14;15.30;70.70
57058;DHT22;74999;52.848;6.748;2024-03-25T14:39:41;15.00;70.80
57058;DHT22;74999;52.848;6.748;2024-03-25T14:42:09;14.90;70.40
57058;DHT22;74999;52.848;6.748;2024-03-25T14:44:38;15.20;69.60
57058;DHT22;74999;52.848;6.748;2024-03-25T14:47:04;15.30;69.20
57058;DHT22;74999;52.848;6.748;2024-03-25T14:49:30;15.00;69.00
57058;DHT22;74999;52.848;6.748;2024-03-25T14:51:56;15.20;69.70
57058;DHT22;74999;52.848;6.748;2024-03-25T14:54:22;15.90;68.70
57058;DHT22;74999;52.848;6.748;2024-03-25T14:56:48;17.10;68.00
57058;DHT22;74999;52.848;6.748;2024-03-25T14:59:14;18.30;66.60
57058;DHT22;74999;52.848;6.748;2024-03-25T15:01:40;19.50;64.80
57058;DHT22;74999;52.848;6.748;2024-03-25T15:04:06;20.30;63.00
57058;DHT22;74999;52.848;6.748;2024-03-25T15:06:31;20.90;60.80
57058;DHT22;74999;52.848;6.748;2024-03-25T15:09:00;21.20;58.60
57058;DHT22;74999;52.848;6.748;2024-03-25T15:11:26;21.30;57.30
57058;DHT22;74999;52.848;6.748;2024-03-25T15:13:53;21.00;56.30
57058;DHT22;74999;52.848;6.748;2024-03-25T15:16:19;20.80;55.50
57058;DHT22;74999;52.848;6.748;2024-03-25T15:18:45;20.80;54.50
57058;DHT22;74999;52.848;6.748;2024-03-25T15:21:10;20.30;53.30
57058;DHT22;74999;52.848;6.748;2024-03-25T15:23:36;19.60;53.00
57058;DHT22;74999;52.848;6.748;2024-03-25T15:26:02;18.90;53.60
57058;DHT22;74999;52.848;6.748;2024-03-25T15:28:28;18.20;54.30
57058;DHT22;74999;52.848;6.748;2024-03-25T15:30:54;17.20;55.10
57058;DHT22;74999;52.848;6.748;2024-03-25T15:33:21;16.60;56.70
57058;DHT22;74999;52.848;6.748;2024-03-25T15:35:48;16.10;57.10